createdAt,value
2019-02-20T00:00:46.154Z,58.07
2019-02-20T00:03:17.010Z,49.93
2019-02-20T00:05:47.349Z,54.57
2019-02-20T00:08:17.687Z,52.40
2019-02-20T00:10:48.172Z,50.27
2019-02-20T00:13:18.468Z,63.73
2019-02-20T00:15:50.439Z,57.80
2019-02-20T00:18:23.689Z,47.83
2019-02-20T00:20:54.104Z,55.27
2019-02-20T00:23:25.489Z,49.67
2019-02-20T00:25:55.895Z,60.87
2019-02-20T00:28:26.211Z,67.40
2019-02-20T00:30:56.508Z,55.57
2019-02-20T00:33:26.847Z,56.17
2019-02-20T00:35:57.202Z,63.73
2019-02-20T00:38:27.528Z,57.63
2019-02-20T00:40:57.814Z,58.53
2019-02-20T00:43:28.236Z,61.63
2019-02-20T00:46:29.705Z,55.53
2019-02-20T00:49:13.451Z,57.20
2019-02-20T00:51:59.207Z,54.50
2019-02-20T00:54:29.615Z,61.20
2019-02-20T00:57:03.151Z,64.50
2019-02-20T00:59:33.485Z,62.07
2019-02-20T01:02:03.907Z,68.17
2019-02-20T01:04:34.569Z,79.53
2019-02-20T01:07:05.509Z,76.37
2019-02-20T01:09:36.379Z,64.77
2019-02-20T01:12:06.801Z,65.30
2019-02-20T01:14:40.280Z,59.43
2019-02-20T01:17:12.731Z,53.37
2019-02-20T01:19:43.174Z,61.57
2019-02-20T01:22:13.584Z,62.53
2019-02-20T01:24:44.048Z,55.67
2019-02-20T01:27:14.362Z,55.67
2019-02-20T01:29:44.695Z,47.23
2019-02-20T01:32:15.072Z,61.13
2019-02-20T01:34:45.396Z,53.83
2019-02-20T01:37:17.913Z,50.60
2019-02-20T01:39:49.525Z,59.17
2019-02-20T01:42:19.948Z,54.60
2019-02-20T01:44:50.256Z,65.83
2019-02-20T01:47:20.503Z,50.50
2019-02-20T01:49:50.851Z,61.87
2019-02-20T01:52:21.183Z,54.73
2019-02-20T01:54:51.523Z,55.93
2019-02-20T01:57:21.935Z,50.70
2019-02-20T01:59:52.375Z,66.73
2019-02-20T02:02:25.308Z,60.03
2019-02-20T02:04:55.664Z,58.87
2019-02-20T02:07:27.043Z,45.70
2019-02-20T02:09:57.448Z,59.33
2019-02-20T02:12:27.948Z,60.93
2019-02-20T02:14:58.226Z,55.53
2019-02-20T02:17:31.583Z,50.37
2019-02-20T02:20:01.985Z,65.17
2019-02-20T02:22:33.128Z,42.03
2019-02-20T02:25:05.106Z,52.47
2019-02-20T02:27:35.481Z,52.30
2019-02-20T02:30:06.467Z,56.83
2019-02-20T02:32:37.287Z,47.53
2019-02-20T02:35:07.815Z,43.20
2019-02-20T02:37:38.147Z,50.53
2019-02-20T02:40:10.367Z,55.73
2019-02-20T02:42:42.895Z,50.00
2019-02-20T02:45:13.488Z,63.60
2019-02-20T02:47:43.888Z,52.77
2019-02-20T02:50:14.231Z,67.83
2019-02-20T02:52:44.631Z,43.17
2019-02-20T02:55:16.902Z,44.30
2019-02-20T02:57:47.340Z,53.60
2019-02-20T03:00:18.267Z,53.03
2019-02-20T03:02:48.702Z,56.47
2019-02-20T03:05:19.224Z,51.00
2019-02-20T03:07:49.553Z,55.60
2019-02-20T03:10:19.800Z,64.33
2019-02-20T03:12:50.161Z,40.27
2019-02-20T03:15:20.455Z,57.97
2019-02-20T03:17:52.023Z,62.03
2019-02-20T03:20:25.245Z,58.00
2019-02-20T03:22:55.621Z,50.80
2019-02-20T03:25:25.845Z,55.50
2019-02-20T03:27:56.130Z,63.27
2019-02-20T03:30:26.698Z,51.23
2019-02-20T03:32:57.165Z,53.90
2019-02-20T03:35:27.386Z,61.27
2019-02-20T03:37:57.820Z,55.90
2019-02-20T03:40:29.647Z,52.57
2019-02-20T03:43:00.027Z,61.63
2019-02-20T03:45:30.380Z,38.60
2019-02-20T03:48:00.719Z,47.93
2019-02-20T03:50:31.167Z,50.67
2019-02-20T03:53:01.541Z,45.50
2019-02-20T03:55:31.861Z,49.97
2019-02-20T03:58:02.259Z,49.33
2019-02-20T04:00:32.600Z,43.37
2019-02-20T04:03:02.960Z,49.80
2019-02-20T04:05:33.387Z,44.00
2019-02-20T04:08:03.803Z,44.70
2019-02-20T04:10:34.260Z,59.97
2019-02-20T04:13:04.622Z,45.60
2019-02-20T04:15:34.979Z,59.53
2019-02-20T04:18:05.352Z,33.73
2019-02-20T04:20:35.781Z,56.07
2019-02-20T04:23:06.175Z,50.33
2019-02-20T04:25:36.678Z,40.53
2019-02-20T04:28:06.975Z,47.00
2019-02-20T04:30:37.471Z,58.97
2019-02-20T04:33:07.843Z,32.93
2019-02-20T04:35:38.352Z,42.37
2019-02-20T04:38:08.646Z,48.10
2019-02-20T04:40:39.000Z,54.00
2019-02-20T04:43:09.404Z,39.87
2019-02-20T04:45:39.795Z,40.33
2019-02-20T04:48:11.244Z,45.23
2019-02-20T04:50:43.204Z,44.83
2019-02-20T04:53:13.521Z,60.13
2019-02-20T04:55:43.855Z,42.43
2019-02-20T04:58:21.421Z,48.97
2019-02-20T05:00:51.826Z,38.33
2019-02-20T05:03:24.619Z,53.30
2019-02-20T05:05:54.936Z,43.37
2019-02-20T05:08:25.192Z,52.00
2019-02-20T05:10:55.481Z,43.60
2019-02-20T05:13:25.730Z,38.00
2019-02-20T05:15:56.094Z,46.40
2019-02-20T05:18:26.397Z,54.17
2019-02-20T05:20:58.039Z,39.17
2019-02-20T05:23:28.258Z,41.23
2019-02-20T05:25:58.574Z,36.17
2019-02-20T05:28:28.914Z,50.27
2019-02-20T05:30:59.229Z,37.90
2019-02-20T05:33:29.440Z,38.37
2019-02-20T05:35:59.844Z,37.47
2019-02-20T05:38:30.227Z,41.47
2019-02-20T05:41:01.151Z,46.70
2019-02-20T05:43:31.433Z,36.07
2019-02-20T05:46:01.821Z,41.87
2019-02-20T05:48:32.256Z,35.03
2019-02-20T05:51:02.532Z,41.07
2019-02-20T05:53:32.907Z,44.13
2019-02-20T05:56:03.264Z,38.70
2019-02-20T05:58:33.791Z,36.90
2019-02-20T06:01:04.075Z,42.10
2019-02-20T06:03:35.466Z,40.60
2019-02-20T06:06:05.735Z,49.57
2019-02-20T06:08:36.055Z,31.67
2019-02-20T06:11:14.482Z,30.80
2019-02-20T06:13:39.638Z,30.70
2019-02-20T06:16:09.992Z,41.07
2019-02-20T06:18:40.319Z,43.63
2019-02-20T06:21:10.663Z,40.53
2019-02-20T06:23:41.053Z,40.20
2019-02-20T06:26:11.411Z,41.80
2019-02-20T06:28:41.627Z,41.90
2019-02-20T06:31:11.879Z,43.57
2019-02-20T06:33:42.179Z,45.23
2019-02-20T06:36:12.451Z,57.40
2019-02-20T06:38:42.794Z,54.13
2019-02-20T06:41:13.054Z,52.13
2019-02-20T06:43:43.353Z,60.47
2019-02-20T06:46:13.696Z,58.40
2019-02-20T06:48:43.952Z,68.50
2019-02-20T06:51:15.238Z,58.60
2019-02-20T06:53:47.170Z,55.17
2019-02-20T06:56:17.496Z,56.47
2019-02-20T06:58:47.906Z,53.23
2019-02-20T07:01:18.426Z,57.47
2019-02-20T07:03:48.834Z,54.70
2019-02-20T07:06:59.522Z,51.70
2019-02-20T07:10:05.261Z,60.73
2019-02-20T07:13:09.758Z,60.23
2019-02-20T07:16:13.587Z,55.77
2019-02-20T07:19:23.566Z,43.73
2019-02-20T07:22:29.748Z,55.93
2019-02-20T07:25:25.232Z,48.57
2019-02-20T07:28:19.222Z,46.63
2019-02-20T07:30:52.607Z,43.10
2019-02-20T07:33:22.936Z,45.03
2019-02-20T07:35:53.237Z,52.97
2019-02-20T07:38:23.598Z,50.77
2019-02-20T07:40:53.935Z,49.77
2019-02-20T07:43:24.200Z,40.27
2019-02-20T07:45:54.611Z,40.80
2019-02-20T07:48:26.051Z,48.17
2019-02-20T07:50:56.444Z,41.70
2019-02-20T07:53:26.722Z,37.60
2019-02-20T07:55:57.656Z,46.30
2019-02-20T07:58:28.068Z,43.93
2019-02-20T08:00:58.481Z,47.60
2019-02-20T08:03:29.676Z,50.13
2019-02-20T08:06:02.796Z,43.43
2019-02-20T08:08:33.282Z,44.80
2019-02-20T08:11:05.098Z,54.47
2019-02-20T08:13:39.243Z,49.00
2019-02-20T08:16:07.646Z,43.93
2019-02-20T08:18:37.892Z,41.20
2019-02-20T08:21:09.010Z,33.87
2019-02-20T08:23:39.280Z,35.33
2019-02-20T08:26:10.140Z,32.73
2019-02-20T08:28:41.468Z,33.20
2019-02-20T08:31:11.784Z,37.53
2019-02-20T08:33:42.053Z,40.10
2019-02-20T08:36:13.462Z,36.17
2019-02-20T08:38:43.732Z,32.77
2019-02-20T08:41:15.281Z,41.87
2019-02-20T08:43:45.622Z,41.43
2019-02-20T08:46:17.011Z,33.53
2019-02-20T08:48:47.390Z,33.07
2019-02-20T08:51:17.689Z,32.67
2019-02-20T08:53:48.044Z,39.80
2019-02-20T08:56:18.393Z,36.13
2019-02-20T08:58:48.739Z,37.13
2019-02-20T09:01:19.203Z,36.07
2019-02-20T09:03:49.607Z,33.27
2019-02-20T09:06:20.004Z,37.47
2019-02-20T09:08:50.419Z,32.47
2019-02-20T09:11:20.779Z,27.77
2019-02-20T09:13:51.145Z,39.13
2019-02-20T09:16:21.669Z,35.50
2019-02-20T09:18:53.613Z,34.20
2019-02-20T09:21:25.401Z,27.23
2019-02-20T09:23:55.742Z,32.10
2019-02-20T09:26:26.293Z,39.23
2019-02-20T09:28:56.985Z,36.03
2019-02-20T09:31:27.500Z,30.10
2019-02-20T09:33:57.891Z,28.70
2019-02-20T09:36:29.340Z,34.87
2019-02-20T09:39:27.814Z,24.07
2019-02-20T09:41:58.258Z,25.47
2019-02-20T09:44:29.396Z,23.47
2019-02-20T09:46:59.752Z,33.10
2019-02-20T09:49:31.550Z,36.20
2019-02-20T09:52:03.452Z,29.87
2019-02-20T09:54:33.868Z,28.40
2019-02-20T09:57:04.264Z,28.20
2019-02-20T09:59:34.651Z,30.53
2019-02-20T10:02:05.037Z,35.77
2019-02-20T10:04:35.341Z,24.90
2019-02-20T10:07:05.667Z,30.70
2019-02-20T10:09:36.689Z,33.03
2019-02-20T10:12:07.952Z,28.87
2019-02-20T10:14:40.233Z,29.07
2019-02-20T10:17:11.203Z,34.13
2019-02-20T10:19:41.652Z,34.23
2019-02-20T10:22:21.123Z,26.87
2019-02-20T10:24:51.593Z,23.67
2019-02-20T10:27:22.946Z,29.90
2019-02-20T10:29:53.332Z,29.03
2019-02-20T10:32:23.763Z,32.13
2019-02-20T10:34:54.287Z,29.03
2019-02-20T10:37:24.673Z,30.27
2019-02-20T10:39:55.659Z,34.80
2019-02-20T10:42:25.989Z,25.90
2019-02-20T10:44:56.409Z,32.27
2019-02-20T10:47:26.761Z,33.40
2019-02-20T10:49:58.363Z,28.87
2019-02-20T10:52:28.732Z,33.47
2019-02-20T10:54:59.812Z,25.53
2019-02-20T10:57:30.126Z,27.03
2019-02-20T11:00:00.495Z,32.37
2019-02-20T11:02:33.508Z,25.83
2019-02-20T11:05:06.332Z,34.93
2019-02-20T11:07:36.748Z,31.03
2019-02-20T11:10:07.461Z,30.00
2019-02-20T11:12:37.912Z,28.77
2019-02-20T11:15:08.656Z,33.00
2019-02-20T11:17:39.339Z,26.63
2019-02-20T11:20:09.842Z,33.90
2019-02-20T11:22:40.287Z,28.37
2019-02-20T11:25:10.979Z,33.23
2019-02-20T11:27:41.494Z,32.80
2019-02-20T11:30:15.719Z,36.03
2019-02-20T11:32:48.712Z,34.33
2019-02-20T11:35:19.203Z,35.10
2019-02-20T11:37:49.661Z,32.27
2019-02-20T11:40:20.135Z,30.80
2019-02-20T11:42:50.688Z,35.20
2019-02-20T11:45:24.860Z,38.37
2019-02-20T11:47:55.319Z,34.93
2019-02-20T11:50:25.852Z,33.23
2019-02-20T11:52:56.217Z,36.60
2019-02-20T11:55:26.703Z,32.30
2019-02-20T11:58:00.726Z,33.43
2019-02-20T12:00:29.364Z,31.63
2019-02-20T12:03:00.029Z,36.70
2019-02-20T12:05:30.499Z,38.30
2019-02-20T12:08:01.138Z,32.30
2019-02-20T12:10:32.631Z,35.93
2019-02-20T12:13:02.972Z,38.90
2019-02-20T12:15:33.314Z,29.47
2019-02-20T12:18:03.869Z,43.60
2019-02-20T12:20:34.376Z,34.63
2019-02-20T12:23:04.722Z,31.93
2019-02-20T12:25:36.515Z,30.50
2019-02-20T12:28:06.892Z,32.33
2019-02-20T12:30:39.474Z,35.50
2019-02-20T12:33:09.941Z,29.80
2019-02-20T12:35:42.382Z,27.80
2019-02-20T12:38:12.926Z,29.07
2019-02-20T12:40:43.348Z,32.37
2019-02-20T12:43:16.429Z,37.13
2019-02-20T12:45:46.929Z,32.47
2019-02-20T12:48:17.936Z,35.77
2019-02-20T12:50:48.322Z,42.73
2019-02-20T12:53:18.683Z,39.23
2019-02-20T12:55:49.423Z,34.57
2019-02-20T12:58:19.831Z,30.23
2019-02-20T13:00:50.444Z,31.13
2019-02-20T13:03:20.836Z,24.93
2019-02-20T13:05:53.706Z,28.60
2019-02-20T13:08:25.355Z,26.03
2019-02-20T13:10:56.662Z,29.87
2019-02-20T13:13:27.360Z,24.07
2019-02-20T13:15:57.675Z,37.80
2019-02-20T13:18:28.165Z,31.30
2019-02-20T13:21:01.390Z,28.07
2019-02-20T13:23:34.127Z,27.17
2019-02-20T13:26:04.459Z,28.77
2019-02-20T13:28:34.987Z,27.67
2019-02-20T13:31:07.117Z,27.47
2019-02-20T13:33:37.512Z,29.20
2019-02-20T13:36:07.746Z,24.73
2019-02-20T13:38:38.194Z,28.23
2019-02-20T13:41:08.855Z,26.23
2019-02-20T13:43:39.197Z,27.30
2019-02-20T13:46:09.532Z,28.70
2019-02-20T13:48:39.962Z,21.20
2019-02-20T13:51:10.362Z,24.57
2019-02-20T13:53:46.385Z,22.60
2019-02-20T13:56:12.860Z,33.03
2019-02-20T13:58:43.228Z,20.10
2019-02-20T14:01:13.767Z,26.17
2019-02-20T14:03:44.278Z,22.03
2019-02-20T14:06:15.142Z,31.70
2019-02-20T14:08:45.590Z,20.97
2019-02-20T14:11:15.948Z,33.80
2019-02-20T14:13:47.325Z,21.07
2019-02-20T14:16:17.575Z,20.10
2019-02-20T14:18:47.865Z,25.00
2019-02-20T14:21:18.128Z,29.37
2019-02-20T14:23:49.696Z,18.23
2019-02-20T14:26:20.167Z,25.90
2019-02-20T14:28:50.672Z,28.47
2019-02-20T14:31:23.125Z,26.57
2019-02-20T14:33:53.231Z,23.97
2019-02-20T14:36:23.501Z,18.77
2019-02-20T14:38:53.893Z,22.70
2019-02-20T14:41:24.859Z,23.23
2019-02-20T14:43:55.378Z,18.30
2019-02-20T14:46:25.779Z,20.50
2019-02-20T14:48:56.203Z,24.43
2019-02-20T14:51:27.580Z,26.40
2019-02-20T14:53:58.162Z,21.20
2019-02-20T14:56:28.495Z,24.63
2019-02-20T14:59:01.668Z,21.50
2019-02-20T15:01:33.683Z,24.03
2019-02-20T15:04:04.080Z,22.20
2019-02-20T15:06:34.532Z,20.23
2019-02-20T15:09:05.847Z,26.90
2019-02-20T15:11:37.953Z,21.63
2019-02-20T15:14:08.330Z,20.03
2019-02-20T15:16:38.725Z,20.83
2019-02-20T15:19:09.581Z,25.13
2019-02-20T15:21:39.960Z,23.73
2019-02-20T15:24:10.389Z,23.43
2019-02-20T15:26:40.774Z,23.27
2019-02-20T15:29:11.173Z,22.27
2019-02-20T15:31:41.563Z,23.77
2019-02-20T15:34:11.957Z,23.10
2019-02-20T15:36:42.354Z,24.37
2019-02-20T15:39:12.791Z,20.27
2019-02-20T15:41:44.424Z,19.93
2019-02-20T15:44:17.116Z,22.23
2019-02-20T15:46:47.940Z,25.40
2019-02-20T15:49:18.373Z,23.73
2019-02-20T15:51:48.872Z,22.10
2019-02-20T15:54:19.367Z,27.23
2019-02-20T15:56:49.813Z,18.33
2019-02-20T15:59:20.206Z,23.43
2019-02-20T16:01:54.007Z,22.70
2019-02-20T16:04:24.437Z,21.97
2019-02-20T16:06:54.801Z,21.70
2019-02-20T16:09:25.256Z,23.63
2019-02-20T16:11:55.720Z,25.00
2019-02-20T16:14:26.395Z,23.60
2019-02-20T16:16:56.757Z,24.23
2019-02-20T16:19:27.175Z,18.33
2019-02-20T16:21:57.507Z,23.87
2019-02-20T16:24:27.891Z,20.63
2019-02-20T16:26:58.230Z,26.50
2019-02-20T16:29:29.035Z,19.57
2019-02-20T16:31:59.439Z,25.70
2019-02-20T16:37:26.809Z,20.40
2019-02-20T16:39:57.363Z,18.57
2019-02-20T16:42:27.741Z,18.40
2019-02-20T16:44:58.130Z,17.80
2019-02-20T16:47:28.519Z,20.10
2019-02-20T16:50:02.059Z,20.23
2019-02-20T16:52:33.152Z,20.70
2019-02-20T16:55:03.538Z,19.23
2019-02-20T16:57:39.712Z,18.37
2019-02-20T17:00:12.184Z,19.60
2019-02-20T17:02:43.323Z,21.93
2019-02-20T17:05:16.011Z,25.00
2019-02-20T17:07:46.551Z,22.90
2019-02-20T17:10:17.376Z,21.70
2019-02-20T17:12:47.796Z,20.70
2019-02-20T17:15:18.426Z,19.83
2019-02-20T17:17:49.209Z,12.57
2019-02-20T17:20:19.816Z,20.00
2019-02-20T17:22:50.301Z,18.93
2019-02-20T17:25:21.206Z,20.27
2019-02-20T17:27:51.557Z,13.00
2019-02-20T17:30:22.406Z,15.67
2019-02-20T17:32:54.535Z,15.90
2019-02-20T17:35:24.959Z,15.50
2019-02-20T17:37:55.369Z,14.43
2019-02-20T17:40:26.056Z,12.73
2019-02-20T17:42:56.564Z,13.40
2019-02-20T17:45:27.287Z,13.70
2019-02-20T17:48:00.473Z,17.77
2019-02-20T17:50:30.899Z,13.17
2019-02-20T17:53:01.299Z,13.13
2019-02-20T17:55:31.739Z,17.00
2019-02-20T17:58:02.122Z,19.80
2019-02-20T18:00:32.653Z,8.03
2019-02-20T18:03:03.040Z,14.47
2019-02-20T18:05:35.046Z,11.47
2019-02-20T18:08:10.994Z,9.03
2019-02-20T18:10:41.417Z,11.47
2019-02-20T18:13:16.866Z,11.47
2019-02-20T18:15:53.134Z,13.37
2019-02-20T18:18:38.700Z,10.53
2019-02-20T18:21:31.013Z,14.53
2019-02-20T18:24:35.040Z,20.30
2019-02-20T18:27:00.504Z,9.93
2019-02-20T18:32:50.950Z,10.53
2019-02-20T18:35:36.967Z,11.13
2019-02-20T18:38:19.119Z,14.03
2019-02-20T18:40:56.707Z,8.93
2019-02-20T18:43:28.799Z,12.20
2019-02-20T18:45:59.274Z,10.57
2019-02-20T18:48:30.055Z,9.83
2019-02-20T18:51:04.757Z,7.93
2019-02-20T18:53:44.964Z,10.30
2019-02-20T18:56:15.888Z,6.40
2019-02-20T18:58:47.041Z,12.83
2019-02-20T19:01:17.383Z,10.00
2019-02-20T19:03:47.851Z,11.93
2019-02-20T19:06:18.343Z,11.67
2019-02-20T19:08:51.620Z,11.33
2019-02-20T19:11:38.167Z,14.00
2019-02-20T19:14:44.041Z,10.00
2019-02-20T19:18:19.785Z,12.43
2019-02-20T19:21:11.385Z,11.50
2019-02-20T19:24:35.377Z,13.37
2019-02-20T19:27:43.872Z,14.37
2019-02-20T19:30:54.740Z,19.00
2019-02-20T19:34:09.128Z,16.53
2019-02-20T19:37:21.322Z,15.30
2019-02-20T19:40:18.115Z,15.50
2019-02-20T19:43:27.433Z,16.90
2019-02-20T19:46:25.247Z,11.57
2019-02-20T19:49:42.935Z,14.93
2019-02-20T19:53:06.362Z,13.97
2019-02-20T19:56:01.647Z,14.03
2019-02-20T19:59:04.007Z,14.53
2019-02-20T20:02:10.196Z,17.30
2019-02-20T20:05:16.631Z,17.87
2019-02-20T20:08:11.817Z,16.83
2019-02-20T20:10:59.989Z,13.27
2019-02-20T20:13:45.641Z,13.20
2019-02-20T20:16:53.659Z,11.10
2019-02-20T20:19:53.277Z,11.13
2019-02-20T20:22:49.758Z,13.47
2019-02-20T20:25:45.311Z,12.70
2019-02-20T20:28:43.780Z,9.63
2019-02-20T20:31:50.001Z,10.63
2019-02-20T20:35:03.368Z,10.43
2019-02-20T20:38:13.717Z,8.40
2019-02-20T20:41:35.687Z,9.73
2019-02-20T20:44:55.920Z,9.13
2019-02-20T20:47:43.744Z,8.53
2019-02-20T20:50:49.888Z,10.47
2019-02-20T20:54:09.521Z,12.60
2019-02-20T20:57:18.163Z,9.60
2019-02-20T21:00:08.800Z,13.33
2019-02-20T21:03:04.936Z,12.50
2019-02-20T21:06:08.050Z,9.67
2019-02-20T21:08:51.842Z,12.97
2019-02-20T21:11:44.551Z,13.27
2019-02-20T21:15:02.590Z,13.83
2019-02-20T21:18:01.001Z,17.67
2019-02-20T21:21:18.493Z,12.90
2019-02-20T21:24:34.803Z,11.73
2019-02-20T21:27:36.144Z,14.50
2019-02-20T21:30:38.493Z,14.17
2019-02-20T21:33:55.457Z,12.57
2019-02-20T21:36:36.933Z,11.80
2019-02-20T21:39:24.839Z,16.47
2019-02-20T21:42:17.936Z,15.30
2019-02-20T21:45:17.710Z,12.57
2019-02-20T21:48:24.852Z,18.83
2019-02-20T21:51:35.339Z,13.13
2019-02-20T21:54:42.477Z,13.00
2019-02-20T21:57:56.914Z,13.83
2019-02-20T22:01:10.338Z,14.87
2019-02-20T22:04:12.224Z,19.00
2019-02-20T22:07:34.844Z,18.03
2019-02-20T22:10:52.418Z,18.50
2019-02-20T22:14:03.177Z,13.03
2019-02-20T22:17:15.369Z,13.80
2019-02-20T22:20:16.110Z,12.93
2019-02-20T22:23:27.445Z,16.80
2019-02-20T22:26:35.746Z,17.27
2019-02-20T22:29:32.715Z,12.33
2019-02-20T22:32:48.236Z,21.60
2019-02-20T22:35:59.137Z,17.53
2019-02-20T22:39:09.650Z,16.37
2019-02-20T22:42:24.773Z,18.70
2019-02-20T22:45:34.525Z,16.50
2019-02-20T22:48:53.996Z,16.10
2019-02-20T22:52:03.377Z,19.97
2019-02-20T22:55:33.917Z,20.50
2019-02-20T22:58:16.088Z,20.37
2019-02-20T23:01:29.388Z,25.23
2019-02-20T23:04:47.205Z,18.93
2019-02-20T23:07:45.935Z,26.30
2019-02-20T23:10:43.635Z,23.03
2019-02-20T23:13:51.509Z,25.07
2019-02-20T23:16:22.616Z,23.97
2019-02-20T23:18:52.977Z,28.13
2019-02-20T23:21:23.337Z,26.03
2019-02-20T23:23:53.767Z,26.50
2019-02-20T23:26:28.113Z,23.37
2019-02-20T23:28:58.505Z,37.43
2019-02-20T23:31:28.879Z,25.90
2019-02-20T23:33:59.209Z,26.50
2019-02-20T23:36:29.438Z,33.53
2019-02-20T23:39:01.284Z,34.57
2019-02-20T23:41:33.165Z,38.10
2019-02-20T23:44:06.095Z,30.80
2019-02-20T23:46:36.399Z,37.70
2019-02-20T23:49:06.774Z,30.10
2019-02-20T23:51:37.106Z,31.53
2019-02-20T23:54:07.626Z,40.00
2019-02-20T23:56:37.890Z,37.07
2019-02-20T23:59:08.553Z,34.57
